Time;durP1;ratioP1;P1;durP2;ratioP2;P2;SDS_P1;SDS_P2;PMS_P1;PMS_P2;Temp;Humidity;BMP_temperature;BMP_pressure;BME280_temperature;BME280_humidity;BME280_pressure;Samples;Min_cycle;Max_cycle;Signal;HPM_P1;HPM_P2
2022/04/28 00:00:15;;;;;;;;;;;6.80;99.90;;;6.17;100.00;98021.16;5054891;28;19953;-59
2022/04/28 00:02:41;;;;;;;;;;;6.80;99.90;;;6.16;100.00;98024.66;5056653;28;19920;-59
2022/04/28 00:05:08;;;;;;;;;;;6.80;99.90;;;6.11;100.00;98027.31;5056686;28;20376;-59
2022/04/28 00:07:33;;;;;;;;;;;6.70;99.90;;;6.11;100.00;98024.69;5051091;28;19924;-59
2022/04/28 00:09:59;;;;;;;;;;;6.70;99.90;;;6.10;100.00;98022.97;5057605;28;19920;-59
2022/04/28 00:12:26;;;;;;;;;;;6.70;99.90;;;6.09;100.00;98025.63;5056916;28;19921;-61
2022/04/28 00:14:51;;;;;;;;;;;6.60;99.90;;;6.06;100.00;98026.50;5055110;28;20261;-59
2022/04/28 00:17:17;;;;;;;;;;;6.60;99.90;;;6.06;100.00;98031.72;5060895;28;19916;-59
2022/04/28 00:19:42;;;;;;;;;;;6.60;99.90;;;6.06;100.00;98025.63;5048121;28;19939;-60
2022/04/28 00:22:08;;;;;;;;;;;6.60;99.90;;;6.04;100.00;98030.00;5057796;28;19928;-59
2022/04/28 00:24:34;;;;;;;;;;;6.60;99.90;;;6.00;100.00;98029.16;5054011;28;20404;-60
2022/04/28 00:27:00;;;;;;;;;;;6.60;99.90;;;5.97;100.00;98021.34;5060249;28;19924;-60
2022/04/28 00:29:25;;;;;;;;;;;6.50;99.90;;;5.93;100.00;98028.31;5052296;28;19927;-60
2022/04/28 00:31:51;;;;;;;;;;;6.50;99.90;;;5.90;100.00;98025.75;5055369;28;19921;-59
2022/04/28 00:34:16;;;;;;;;;;;6.50;99.90;;;5.84;100.00;98023.16;5054990;28;19959;-60
2022/04/28 00:36:42;;;;;;;;;;;6.50;99.90;;;5.85;100.00;98022.28;5055160;28;20365;-60
2022/04/28 00:39:08;;;;;;;;;;;6.40;99.90;;;5.87;100.00;98027.53;5055903;28;19959;-60
2022/04/28 00:41:33;;;;;;;;;;;6.40;99.90;;;5.85;100.00;98026.63;5055923;28;19929;-59
2022/04/28 00:44:00;;;;;;;;;;;6.40;99.90;;;5.84;100.00;98020.53;5057052;28;19951;-60
2022/04/28 00:46:25;;;;;;;;;;;6.40;99.90;;;5.85;100.00;98026.63;5050135;28;19920;-59
2022/04/28 00:51:35;;;;;;;;;;;6.50;99.90;;;5.86;100.00;98023.16;5053146;28;19927;-59
2022/04/28 00:54:02;;;;;;;;;;;6.50;99.90;;;5.88;100.00;98019.63;5053799;28;19959;-59
2022/04/28 00:56:28;;;;;;;;;;;6.50;99.90;;;5.91;100.00;98026.59;5058322;28;20271;-59
2022/04/28 00:58:55;;;;;;;;;;;6.50;99.90;;;5.89;100.00;98017.91;5059379;28;19924;-59
2022/04/28 01:01:21;;;;;;;;;;;6.50;99.90;;;5.93;100.00;98027.44;5056932;28;19920;-59
2022/04/28 01:03:47;;;;;;;;;;;6.50;99.90;;;5.89;100.00;98021.38;5055119;28;19974;-59
2022/04/28 01:06:13;;;;;;;;;;;6.50;99.90;;;5.86;100.00;98018.78;5053077;28;19928;-60
2022/04/28 01:08:39;;;;;;;;;;;6.40;99.90;;;5.87;100.00;98020.53;5054483;28;20394;-60
2022/04/28 01:11:05;;;;;;;;;;;6.50;99.90;;;5.90;100.00;98015.28;5051669;28;19925;-59
2022/04/28 01:13:31;;;;;;;;;;;6.50;99.90;;;5.89;100.00;98023.13;5056061;28;19916;-59
2022/04/28 01:15:57;;;;;;;;;;;6.50;99.90;;;5.84;100.00;98019.69;5051305;28;19924;-59
2022/04/28 01:18:22;;;;;;;;;;;6.40;99.90;;;5.79;100.00;98011.84;5055458;28;19916;-59
2022/04/28 01:20:48;;;;;;;;;;;6.40;99.90;;;5.77;100.00;98013.63;5053527;28;19924;-59
2022/04/28 01:23:14;;;;;;;;;;;6.40;99.90;;;5.80;100.00;98028.44;5058146;28;19971;-60
2022/04/28 01:25:39;;;;;;;;;;;6.40;99.90;;;5.79;100.00;98022.31;5059597;28;19931;-59
2022/04/28 01:28:05;;;;;;;;;;;6.40;99.90;;;5.77;100.00;98016.22;5057282;28;20291;-59
2022/04/28 01:30:30;;;;;;;;;;;6.40;99.90;;;5.71;100.00;98026.78;5052652;28;19921;-59
2022/04/28 01:32:57;;;;;;;;;;;6.30;99.90;;;5.67;100.00;98022.41;5052998;28;20029;-59
2022/04/28 01:35:24;;;;;;;;;;;6.30;99.90;;;5.64;100.00;98014.59;5057762;28;20496;-60
2022/04/28 01:37:49;;;;;;;;;;;6.30;99.90;;;5.68;100.00;98024.16;5057912;28;19927;-59
2022/04/28 01:40:16;;;;;;;;;;;6.20;99.90;;;5.63;100.00;98018.09;5054269;28;19916;-59
2022/04/28 01:42:43;;;;;;;;;;;6.30;99.90;;;5.67;100.00;98023.31;5053790;28;19921;-59
2022/04/28 01:45:09;;;;;;;;;;;6.30;99.90;;;5.65;100.00;98029.41;5055829;28;20399;-59
2022/04/28 01:47:35;;;;;;;;;;;6.20;99.90;;;5.64;100.00;98027.69;5055405;28;19916;-59
2022/04/28 01:50:02;;;;;;;;;;;6.20;99.90;;;5.62;100.00;98027.69;5053926;28;19924;-59
2022/04/28 01:55:12;;;;;;;;;;;6.20;99.90;;;5.59;100.00;98025.09;5053676;28;20666;-59
2022/04/28 01:57:39;;;;;;;;;;;6.20;99.90;;;5.54;100.00;98026.88;5056160;28;20022;-59
2022/04/28 02:00:06;;;;;;;;;;;6.10;99.90;;;5.47;100.00;98017.31;5055615;28;19943;-59
2022/04/28 02:02:31;;;;;;;;;;;6.10;99.90;;;5.45;100.00;98026.94;5053827;28;20156;-59
2022/04/28 02:05:00;;;;;;;;;;;6.10;99.90;;;5.43;100.00;98023.47;5052357;28;20376;-59
2022/04/28 02:07:27;;;;;;;;;;;6.00;99.90;;;5.40;100.00;98028.72;5054270;28;20907;-59
2022/04/28 02:09:53;;;;;;;;;;;6.00;99.90;;;5.37;100.00;98021.75;5057307;28;20379;-60
2022/04/28 02:12:18;;;;;;;;;;;6.00;99.90;;;5.30;100.00;98018.31;5057247;28;19925;-60
2022/04/28 02:14:45;;;;;;;;;;;5.90;99.90;;;5.29;100.00;98018.31;5050075;28;19925;-59
2022/04/28 02:17:11;;;;;;;;;;;5.90;99.90;;;5.29;100.00;98019.19;5054679;28;19920;-59
2022/04/28 02:19:36;;;;;;;;;;;5.90;99.90;;;5.25;100.00;98027.06;5057610;28;20359;-59
2022/04/28 02:22:03;;;;;;;;;;;5.90;99.90;;;5.22;100.00;98025.31;5055963;28;19956;-60
2022/04/28 02:24:28;;;;;;;;;;;5.80;99.90;;;5.19;100.00;98027.06;5053230;28;19921;-60
2022/04/28 02:26:54;;;;;;;;;;;5.80;99.90;;;5.15;100.00;98024.50;5050211;28;19970;-60
2022/04/28 02:29:19;;;;;;;;;;;5.80;99.90;;;5.09;100.00;98032.34;5058805;28;20221;-59
2022/04/28 02:31:45;;;;;;;;;;;5.70;99.90;;;5.06;100.00;98032.41;5056516;28;19916;-60
2022/04/28 02:34:11;;;;;;;;;;;5.70;99.90;;;4.99;100.00;98033.31;5056975;28;19916;-59
2022/04/28 02:36:37;;;;;;;;;;;5.60;99.90;;;4.97;100.00;98042.88;5058691;28;19959;-60
2022/04/28 02:39:03;;;;;;;;;;;5.60;99.90;;;4.91;100.00;98033.31;5055238;28;20323;-60
2022/04/28 02:41:28;;;;;;;;;;;5.60;99.90;;;4.89;100.00;98044.66;5051278;28;19924;-60
2022/04/28 02:43:54;;;;;;;;;;;5.50;99.90;;;4.84;100.00;98038.59;5058748;28;19932;-59
2022/04/28 02:46:20;;;;;;;;;;;5.50;99.90;;;4.80;100.00;98042.09;5058244;28;20098;-59
2022/04/28 02:48:46;;;;;;;;;;;5.40;99.90;;;4.74;100.00;98037.75;5056144;28;19985;-59
2022/04/28 02:51:12;;;;;;;;;;;5.40;99.90;;;4.70;100.00;98046.47;5057571;28;20346;-59
2022/04/28 02:53:37;;;;;;;;;;;5.30;99.90;;;4.63;100.00;98043.03;5058051;28;20172;-59
2022/04/28 02:56:03;;;;;;;;;;;5.30;99.90;;;4.62;100.00;98041.25;5054627;28;19924;-59
2022/04/28 02:58:29;;;;;;;;;;;5.30;99.90;;;4.48;100.00;98015.19;5058228;28;19977;-59
2022/04/28 03:00:55;;;;;;;;;;;5.30;99.90;;;4.56;100.00;98046.53;5057534;28;19924;-59
2022/04/28 03:03:20;;;;;;;;;;;5.20;99.90;;;4.52;100.00;98043.03;5055794;28;19927;-59
2022/04/28 03:11:17;;;;;;;;;;;5.10;99.90;;;4.38;100.00;98048.28;5056792;28;19962;-59
2022/04/28 03:13:43;;;;;;;;;;;5.00;99.90;;;4.38;100.00;98045.69;5057592;28;20007;-59
2022/04/28 03:16:08;;;;;;;;;;;5.00;99.90;;;4.37;100.00;98048.28;5054447;28;19923;-59
2022/04/28 03:18:34;;;;;;;;;;;5.00;99.90;;;4.33;100.00;98044.81;5060149;28;19920;-59
2022/04/28 03:21:00;;;;;;;;;;;5.00;99.90;;;4.28;100.00;98050.94;5057353;28;19987;-59
2022/04/28 03:23:26;;;;;;;;;;;5.00;99.90;;;4.30;100.00;98057.00;5052328;28;19928;-59
2022/04/28 03:25:52;;;;;;;;;;;5.00;99.90;;;4.30;100.00;98057.00;5058071;28;19966;-59
2022/04/28 03:28:21;;;;;;;;;;;5.00;99.90;;;4.25;100.00;98049.16;5059977;28;19921;-59
2022/04/28 03:30:48;;;;;;;;;;;5.00;99.90;;;4.25;100.00;98062.22;5055366;28;20197;-59
2022/04/28 03:33:14;;;;;;;;;;;4.90;99.90;;;4.23;100.00;98055.28;5053812;28;19939;-59
2022/04/28 03:35:40;;;;;;;;;;;4.90;99.90;;;4.20;100.00;98053.56;5059348;28;19931;-59
2022/04/28 03:38:13;;;;;;;;;;;4.90;99.90;;;4.18;100.00;98050.03;5059830;28;19969;-59
2022/04/28 03:40:42;;;;;;;;;;;4.90;99.90;;;4.20;100.00;98056.16;5057620;28;19916;-59
2022/04/28 03:43:09;;;;;;;;;;;4.90;99.90;;;4.16;100.00;98054.41;5048172;28;20161;-59
2022/04/28 03:45:36;;;;;;;;;;;4.80;99.90;;;4.12;100.00;98060.50;5051932;28;19916;-60
2022/04/28 03:48:03;;;;;;;;;;;4.80;99.90;;;4.08;100.00;98064.88;5055946;28;20458;-59
2022/04/28 03:50:29;;;;;;;;;;;4.80;99.90;;;4.05;100.00;98066.59;5057786;28;19929;-59
2022/04/28 03:52:58;;;;;;;;;;;4.70;99.90;;;4.01;100.00;98061.38;5056060;28;20011;-60
2022/04/28 03:55:24;;;;;;;;;;;4.70;99.90;;;4.05;100.00;98061.38;5058691;28;19924;-59
2022/04/28 03:57:50;;;;;;;;;;;4.70;99.90;;;4.05;100.00;98062.25;5056903;28;19990;-59
2022/04/28 04:00:15;;;;;;;;;;;4.70;99.90;;;4.03;100.00;98064.00;5055631;28;20372;-59
2022/04/28 04:02:41;;;;;;;;;;;4.70;99.90;;;4.00;100.00;98063.97;5055516;28;20961;-59
2022/04/28 04:05:07;;;;;;;;;;;4.70;99.90;;;4.00;100.00;98063.97;5058139;28;19920;-59
2022/04/28 04:07:33;;;;;;;;;;;4.70;99.90;;;4.00;100.00;98066.59;5050643;28;19928;-59
2022/04/28 04:09:59;;;;;;;;;;;4.70;99.90;;;3.99;100.00;98067.47;5055092;28;19920;-59
2022/04/28 04:12:25;;;;;;;;;;;4.70;99.90;;;4.01;100.00;98077.03;5055800;28;19944;-59
2022/04/28 04:14:52;;;;;;;;;;;4.70;99.90;;;4.02;100.00;98072.72;5058779;28;19931;-59
2022/04/28 04:17:18;;;;;;;;;;;4.70;99.90;;;4.02;100.00;98072.72;5055133;28;19928;-59
2022/04/28 04:19:44;;;;;;;;;;;4.70;99.90;;;4.01;100.00;98070.94;5054915;28;19917;-59
2022/04/28 04:22:10;;;;;;;;;;;4.70;99.90;;;4.00;100.00;98075.31;5051334;28;19936;-59
2022/04/28 04:24:35;;;;;;;;;;;4.70;99.90;;;3.96;100.00;98070.94;5056317;28;20918;-60
2022/04/28 04:27:01;;;;;;;;;;;4.70;99.90;;;4.03;100.00;98081.41;5058724;28;19928;-59
2022/04/28 04:29:27;;;;;;;;;;;4.70;99.90;;;4.05;100.00;98083.13;5052644;28;19920;-59
2022/04/28 04:34:36;;;;;;;;;;;4.70;99.90;;;4.08;100.00;98090.97;5032238;28;19930;-49
2022/04/28 04:37:02;;;;;;;;;;;4.70;99.90;;;4.08;100.00;98087.50;5033910;28;19925;-50
2022/04/28 04:39:29;;;;;;;;;;;4.70;99.90;;;4.09;100.00;98091.81;5030654;28;21286;-50
2022/04/28 04:41:55;;;;;;;;;;;4.70;99.90;;;4.11;100.00;98092.69;5030522;28;20320;-48
2022/04/28 04:44:21;;;;;;;;;;;4.80;99.90;;;4.15;100.00;98099.69;5034399;28;19975;-48
2022/04/28 04:46:46;;;;;;;;;;;4.80;99.90;;;4.14;100.00;98092.69;5030382;28;19948;-51
2022/04/28 04:49:12;;;;;;;;;;;4.80;99.90;;;4.19;100.00;98110.09;5034397;28;19964;-50
2022/04/28 04:51:37;;;;;;;;;;;4.90;99.90;;;4.18;100.00;98099.66;5032429;28;20363;-48
2022/04/28 04:54:03;;;;;;;;;;;4.90;99.90;;;4.30;100.00;98115.31;5033292;28;19932;-50
2022/04/28 04:56:29;;;;;;;;;;;4.90;99.90;;;4.34;100.00;98116.19;5037238;28;20340;-51
2022/04/28 04:58:54;;;;;;;;;;;5.00;99.90;;;4.40;100.00;98114.44;5031439;28;19924;-50
2022/04/28 05:01:20;;;;;;;;;;;5.10;99.90;;;4.46;100.00;98117.94;5035108;28;20705;-51
2022/04/28 05:03:46;;;;;;;;;;;5.10;99.90;;;4.56;100.00;98114.44;5038506;28;20791;-50
2022/04/28 05:06:11;;;;;;;;;;;5.20;99.90;;;4.61;100.00;98117.03;5036682;28;20388;-48
2022/04/28 05:08:37;;;;;;;;;;;5.30;99.90;;;4.72;100.00;98126.59;5036975;28;20382;-47
2022/04/28 05:11:02;;;;;;;;;;;5.40;99.90;;;4.81;100.00;98124.81;5031848;28;20747;-50
2022/04/28 05:13:28;;;;;;;;;;;5.50;99.90;;;4.86;100.00;98123.94;5028194;28;19925;-52
2022/04/28 05:15:54;;;;;;;;;;;5.60;99.90;;;4.97;100.00;98126.53;5025869;28;20487;-49
2022/04/28 05:18:19;;;;;;;;;;;5.70;99.90;;;5.06;100.00;98129.13;5034182;28;19928;-50
2022/04/28 05:20:45;;;;;;;;;;;5.70;99.90;;;5.20;100.00;98136.03;5022265;28;20366;-49
2022/04/28 05:23:11;;;;;;;;;;;5.90;99.90;;;5.33;100.00;98137.75;5037874;28;20483;-48
2022/04/28 05:25:36;;;;;;;;;;;6.00;99.90;;;5.41;100.00;98132.47;5035762;28;20431;-50
2022/04/28 05:28:02;;;;;;;;;;;6.10;99.90;;;5.52;100.00;98142.00;5034353;28;19948;-50
2022/04/28 05:30:28;;;;;;;;;;;6.20;99.90;;;5.61;100.00;98143.69;5030838;28;19924;-48
2022/04/28 05:32:54;;;;;;;;;;;6.30;99.90;;;5.74;100.00;98152.34;5033314;28;19933;-48
2022/04/28 05:35:19;;;;;;;;;;;6.40;99.90;;;5.74;100.00;98131.41;5031210;28;19924;-48
2022/04/28 05:37:45;;;;;;;;;;;6.50;99.90;;;5.95;100.00;98159.22;5028842;28;19920;-50
2022/04/28 05:40:12;;;;;;;;;;;6.60;99.90;;;6.09;100.00;98156.56;5025580;28;20008;-50
2022/04/28 05:48:10;;;;;;;;;;;6.90;99.90;;;6.41;100.00;98165.94;5032361;28;19963;-49
2022/04/28 05:50:37;;;;;;;;;;;7.10;99.90;;;6.49;100.00;98161.47;5035921;28;19921;-47
2022/04/28 05:53:03;;;;;;;;;;;7.10;99.90;;;6.42;100.00;98147.53;5029369;28;20022;-47
2022/04/28 05:55:29;;;;;;;;;;;7.20;99.90;;;6.64;100.00;98166.59;5033717;28;20380;-48
2022/04/28 05:57:57;;;;;;;;;;;7.40;99.90;;;6.78;100.00;98169.06;5031309;28;19960;-48
2022/04/28 06:00:23;;;;;;;;;;;7.40;99.90;;;6.87;100.00;98173.34;5025624;28;20400;-49
2022/04/28 06:02:48;;;;;;;;;;;7.50;99.90;;;6.97;100.00;98171.53;5023441;28;20427;-48
2022/04/28 06:05:14;;;;;;;;;;;7.60;99.90;;;7.07;100.00;98175.81;5035351;28;19929;-48
2022/04/28 06:07:39;;;;;;;;;;;7.70;99.90;;;7.15;100.00;98178.34;5033767;28;19963;-46
2022/04/28 06:10:05;;;;;;;;;;;7.80;99.90;;;7.21;100.00;98175.63;5033220;28;19923;-49
2022/04/28 06:12:31;;;;;;;;;;;7.90;99.90;;;7.22;100.00;98174.75;5013581;28;20297;-47
2022/04/28 06:14:57;;;;;;;;;;;7.90;99.90;;;7.33;100.00;98175.50;5032447;28;20641;-41
2022/04/28 06:17:22;;;;;;;;;;;8.00;99.90;;;7.36;100.00;98172.84;5031875;28;19917;-43
2022/04/28 06:19:48;;;;;;;;;;;8.10;99.90;;;7.54;100.00;98195.38;5036697;28;19947;-45
2022/04/28 06:22:14;;;;;;;;;;;8.20;99.90;;;7.61;100.00;98189.16;5034832;28;19972;-45
2022/04/28 06:24:39;;;;;;;;;;;8.30;99.90;;;7.69;100.00;98191.69;5027231;28;19932;-47
2022/04/28 06:27:05;;;;;;;;;;;8.30;99.90;;;7.74;100.00;98195.13;5030048;28;19920;-44
2022/04/28 06:29:31;;;;;;;;;;;8.40;99.90;;;7.83;100.00;98187.13;5031349;28;20047;-41
2022/04/28 06:31:56;;;;;;;;;;;8.50;99.90;;;7.90;100.00;98195.81;5032449;28;19924;-42
2022/04/28 06:34:22;;;;;;;;;;;8.60;99.90;;;8.03;100.00;98202.59;5035426;28;19963;-43
2022/04/28 06:36:47;;;;;;;;;;;8.60;99.90;;;8.10;100.00;98202.53;5034807;28;19928;-42
2022/04/28 06:39:13;;;;;;;;;;;8.80;99.90;;;8.22;100.00;98207.63;5026689;28;19929;-47
2022/04/28 06:41:39;;;;;;;;;;;8.80;99.90;;;8.30;100.00;98212.75;5029181;28;20198;-44
2022/04/28 06:44:05;;;;;;;;;;;8.90;99.90;;;8.40;100.00;98215.22;5035364;28;20304;-45
2022/04/28 06:46:30;;;;;;;;;;;9.00;99.90;;;8.53;100.00;98208.03;5014133;28;20538;-47
2022/04/28 06:48:56;;;;;;;;;;;9.20;99.90;;;8.73;100.00;98212.13;5028507;28;19917;-45
2022/04/28 06:51:22;;;;;;;;;;;9.30;99.90;;;8.81;100.00;98210.25;5028656;28;19925;-47
2022/04/28 06:53:47;;;;;;;;;;;9.50;99.90;;;9.02;100.00;98213.38;5025912;28;20184;-47
2022/04/28 06:56:13;;;;;;;;;;;9.60;99.90;;;9.22;100.00;98216.50;5030379;28;19925;-47
2022/04/28 06:58:39;;;;;;;;;;;9.80;99.90;;;9.41;100.00;98213.56;5020625;28;19924;-46
2022/04/28 07:01:05;;;;;;;;;;;10.00;99.90;;;9.62;100.00;98220.13;5031637;28;20015;-46
2022/04/28 07:03:31;;;;;;;;;;;10.20;99.90;;;9.80;100.00;98216.25;5026286;28;20076;-48
2022/04/28 07:05:57;;;;;;;;;;;10.40;99.90;;;10.02;100.00;98214.91;5037299;28;19920;-47
2022/04/28 07:08:22;;;;;;;;;;;10.60;99.90;;;10.16;97.22;98221.66;5031434;28;19925;-47
2022/04/28 07:10:48;;;;;;;;;;;10.70;99.90;;;10.25;90.51;98218.84;5034470;28;19924;-46
2022/04/28 07:13:14;;;;;;;;;;;10.80;99.90;;;10.48;92.32;98226.22;5037856;28;20011;-46
2022/04/28 07:15:40;;;;;;;;;;;11.00;99.90;;;10.59;88.60;98228.63;5028868;28;20339;-45
2022/04/28 07:18:06;;;;;;;;;;;11.10;99.90;;;10.75;89.25;98224.72;5028860;28;19921;-48
2022/04/28 07:20:32;;;;;;;;;;;11.30;99.90;;;10.88;88.81;98230.56;5030842;28;19956;-46
2022/04/28 07:22:59;;;;;;;;;;;11.40;99.90;;;11.06;87.59;98230.06;5030428;28;20008;-46
2022/04/28 07:25:26;;;;;;;;;;;11.50;99.90;;;11.26;80.12;98232.19;5034349;28;19963;-46
2022/04/28 07:27:52;;;;;;;;;;;11.70;99.90;;;11.35;81.56;98238.16;5032362;28;19967;-45
2022/04/28 07:30:18;;;;;;;;;;;11.80;99.90;;;11.50;82.38;98237.72;5023764;28;19921;-47
2022/04/28 07:32:44;;;;;;;;;;;11.90;99.90;;;11.56;80.50;98234.06;5033599;28;20199;-43
2022/04/28 07:35:09;;;;;;;;;;;12.00;99.90;;;11.56;78.36;98226.16;5036266;28;19931;-46
2022/04/28 07:37:35;;;;;;;;;;;12.10;99.90;;;11.74;77.66;98243.25;5034729;28;19963;-46
2022/04/28 07:40:00;;;;;;;;;;;12.20;99.90;;;11.78;79.66;98236.97;5024656;28;19916;-47
2022/04/28 07:42:26;;;;;;;;;;;12.30;99.90;;;11.89;79.29;98236.66;5030378;28;19929;-45
2022/04/28 07:44:52;;;;;;;;;;;12.40;99.90;;;12.06;75.16;98238.84;5033551;28;20035;-45
2022/04/28 07:47:18;;;;;;;;;;;12.50;99.90;;;12.13;76.75;98246.56;5033671;28;20363;-43
2022/04/28 07:49:44;;;;;;;;;;;12.60;99.90;;;12.29;77.00;98246.97;5030622;28;20119;-47
2022/04/28 07:52:10;;;;;;;;;;;12.70;99.90;;;12.41;77.55;98246.56;5033633;28;19921;-45
2022/04/28 07:54:35;;;;;;;;;;;12.80;99.90;;;12.56;76.75;98255.84;5034062;28;20428;-44
2022/04/28 07:57:01;;;;;;;;;;;12.90;99.90;;;12.56;71.82;98257.59;5033112;28;20010;-50
2022/04/28 07:59:27;;;;;;;;;;;13.00;99.90;;;12.67;76.65;98252.84;5031560;28;19924;-46
2022/04/28 08:01:52;;;;;;;;;;;13.10;99.90;;;12.75;75.11;98252.59;5023991;28;19960;-45
2022/04/28 08:04:18;;;;;;;;;;;13.20;99.90;;;12.89;74.94;98257.44;5034909;28;19925;-46
2022/04/28 08:06:43;;;;;;;;;;;13.30;99.90;;;12.91;71.16;98253.81;5033446;28;20365;-47
2022/04/28 08:09:09;;;;;;;;;;;13.30;99.90;;;13.02;71.05;98255.25;5032332;28;19931;-48
2022/04/28 08:11:35;;;;;;;;;;;13.40;99.90;;;13.08;68.95;98265.63;5031587;28;19987;-46
2022/04/28 08:14:00;;;;;;;;;;;13.50;99.90;;;13.11;65.62;98263.75;5029010;28;19931;-47
2022/04/28 08:16:26;;;;;;;;;;;13.50;99.90;;;13.23;64.90;98262.50;5030857;28;20295;-48
2022/04/28 08:18:52;;;;;;;;;;;13.60;99.90;;;13.28;64.82;98263.19;5029317;28;19956;-47
2022/04/28 08:21:18;;;;;;;;;;;13.70;99.90;;;13.37;64.55;98264.72;5032891;28;19925;-46
2022/04/28 08:23:44;;;;;;;;;;;13.80;99.90;;;13.46;67.96;98264.38;5036103;28;19947;-45
2022/04/28 08:26:09;;;;;;;;;;;13.80;99.90;;;13.52;65.59;98269.47;5025549;28;19939;-48
2022/04/28 08:28:35;;;;;;;;;;;14.00;99.90;;;13.62;62.95;98275.31;5036964;28;19921;-47
2022/04/28 08:31:01;;;;;;;;;;;14.00;99.90;;;13.63;64.04;98265.56;5035345;28;20376;-47
2022/04/28 08:33:26;;;;;;;;;;;14.00;99.90;;;13.71;60.63;98274.09;5023651;28;19916;-45
2022/04/28 08:35:52;;;;;;;;;;;14.10;99.90;;;13.75;62.37;98278.41;5012512;28;20043;-48
2022/04/28 08:38:18;;;;;;;;;;;14.20;99.90;;;13.83;62.28;98262.19;5029463;28;19921;-47
2022/04/28 08:40:46;;;;;;;;;;;14.20;99.90;;;13.97;63.23;98264.34;5022443;28;20339;-48
2022/04/28 08:43:13;;;;;;;;;;;14.40;99.90;;;14.13;58.74;98270.81;5031572;28;19960;-45
2022/04/28 08:46:50;;;;;;;;;;;14.50;99.90;;;14.21;61.18;98266.09;5029535;28;19928;-46
2022/04/28 08:48:28;;;;;;;;;;;14.60;99.90;;;14.34;59.99;98266.50;5031066;28;19917;-47
2022/04/28 08:50:54;;;;;;;;;;;14.70;99.90;;;14.33;60.31;98273.56;5027598;28;19920;-45
2022/04/28 08:53:20;;;;;;;;;;;14.80;99.90;;;14.39;60.49;98261.88;5039590;28;20352;-49
2022/04/28 08:55:45;;;;;;;;;;;14.80;99.90;;;14.49;57.10;98262.38;5036499;28;19917;-46
2022/04/28 08:58:11;;;;;;;;;;;14.90;99.90;;;14.54;56.94;98267.50;5039727;28;19925;-49
2022/04/28 09:00:38;;;;;;;;;;;14.90;99.90;;;14.62;58.28;98268.09;5033019;28;19928;-48
2022/04/28 09:03:03;;;;;;;;;;;15.00;99.90;;;14.72;58.05;98269.47;5036876;28;19952;-46
2022/04/28 09:05:31;;;;;;;;;;;15.10;99.90;;;14.85;57.14;98273.34;5036512;28;19925;-49
2022/04/28 09:07:58;;;;;;;;;;;15.20;99.90;;;14.88;52.11;98275.03;5034214;28;19945;-47
2022/04/28 09:10:32;;;;;;;;;;;15.30;99.90;;;14.88;50.81;98273.22;5035913;28;19924;-49
2022/04/28 09:14:08;;;;;;;;;;;15.30;98.80;;;14.87;53.14;98273.28;5033412;28;19925;-47
2022/04/28 09:15:52;;;;;;;;;;;15.30;99.50;;;14.94;52.98;98271.25;5031974;28;19929;-48
2022/04/28 09:18:18;;;;;;;;;;;15.30;99.80;;;14.95;51.36;98272.97;5037913;28;19958;-46
2022/04/28 09:20:45;;;;;;;;;;;15.30;99.00;;;14.91;49.89;98272.22;5035980;28;19925;-47
2022/04/28 09:23:11;;;;;;;;;;;15.30;97.40;;;14.98;46.04;98276.38;5033992;28;19968;-47
2022/04/28 09:25:42;;;;;;;;;;;15.30;94.20;;;14.84;44.65;98237.13;5037612;28;19987;-47
2022/04/28 09:28:11;;;;;;;;;;;15.40;92.60;;;15.13;44.09;98274.00;5042440;28;19917;-47
2022/04/28 09:30:42;;;;;;;;;;;15.50;92.00;;;15.21;42.69;98277.22;5036881;28;20091;-45
2022/04/28 09:33:09;;;;;;;;;;;15.60;90.80;;;15.26;42.38;98273.44;5051937;28;20269;-48
2022/04/28 09:35:34;;;;;;;;;;;15.60;89.10;;;15.28;41.07;98271.56;5034256;28;19985;-49
2022/04/28 09:38:00;;;;;;;;;;;15.70;86.60;;;15.31;41.82;98262.63;5033346;28;20366;-45
2022/04/28 09:43:12;;;;;;;;;;;15.80;89.60;;;15.46;42.45;98267.28;5038405;28;20079;-47
2022/04/28 09:45:39;;;;;;;;;;;15.90;86.80;;;15.42;41.04;98260.38;5030741;28;19921;-45
2022/04/28 09:48:07;;;;;;;;;;;15.90;84.10;;;15.53;42.57;98273.19;5034900;28;20018;-46
2022/04/28 09:50:33;;;;;;;;;;;15.90;85.90;;;15.42;42.23;98239.09;5029530;28;20436;-46
2022/04/28 09:53:02;;;;;;;;;;;16.00;85.90;;;15.64;41.86;98270.94;5032636;28;19921;-48
2022/04/28 09:55:29;;;;;;;;;;;16.00;85.00;;;15.52;40.77;98239.56;5035523;28;20360;-46
2022/04/28 09:57:55;;;;;;;;;;;16.10;80.80;;;15.65;40.76;98272.66;5034026;28;19932;-48
2022/04/28 10:00:21;;;;;;;;;;;16.00;81.90;;;15.71;41.56;98263.56;5035392;28;20461;-48
2022/04/28 10:02:47;;;;;;;;;;;16.10;82.10;;;15.72;41.72;98262.63;5035345;28;19976;-48
2022/04/28 10:05:14;;;;;;;;;;;16.10;82.00;;;15.73;41.35;98259.03;5030520;28;19920;-41
2022/04/28 10:07:40;;;;;;;;;;;16.20;81.90;;;15.75;41.98;98259.84;5050195;28;20097;-41
2022/04/28 10:10:06;;;;;;;;;;;16.20;82.90;;;15.95;41.86;98274.06;5037254;28;19921;-48
2022/04/28 10:12:32;;;;;;;;;;;16.30;82.00;;;15.93;39.96;98254.66;5033092;28;20317;-51
2022/04/28 10:14:59;;;;;;;;;;;16.30;77.80;;;15.95;40.61;98266.97;5034810;28;19931;-51
2022/04/28 10:18:05;;;;;;;;;;;16.30;79.80;;;16.13;42.82;98261.72;5041477;28;19924;-49
2022/04/28 10:20:36;;;;;;;;;;;16.40;83.30;;;16.10;40.81;98257.44;4987183;28;19939;-49
2022/04/28 10:23:05;;;;;;;;;;;16.50;78.70;;;16.01;40.72;98257.84;5029868;28;20026;-48
2022/04/28 10:34:30;;;;;;;;;;;16.50;76.20;;;16.10;39.18;98253.91;5041136;22;19940;-60
2022/04/28 10:37:01;;;;;;;;;;;16.50;76.40;;;16.10;38.69;98249.44;5009703;28;19921;-60
2022/04/28 10:39:42;;;;;;;;;;;16.50;75.00;;;16.13;38.94;98241.31;5020212;28;19952;-59
2022/04/28 10:42:35;;;;;;;;;;;16.60;75.50;;;16.29;38.65;98249.44;5023486;28;19944;-59
2022/04/28 10:45:04;;;;;;;;;;;16.60;76.80;;;16.25;38.75;98252.31;4986773;28;20437;-59
2022/04/28 10:47:38;;;;;;;;;;;16.70;73.40;;;16.11;40.28;98239.66;5002723;28;20415;-59
2022/04/28 10:50:20;;;;;;;;;;;16.60;75.40;;;16.18;40.50;98241.94;4997565;28;19959;-59
2022/04/28 10:52:56;;;;;;;;;;;16.60;76.10;;;16.18;38.87;98236.63;5005987;28;20365;-59
2022/04/28 10:55:25;;;;;;;;;;;16.60;73.30;;;16.28;40.34;98230.91;5011741;28;19968;-59
2022/04/28 10:57:50;;;;;;;;;;;16.60;74.50;;;16.26;38.91;98225.66;5009026;28;20304;-59
2022/04/28 11:00:33;;;;;;;;;;;16.70;73.40;;;16.49;39.42;98247.63;5002804;28;19921;-59
2022/04/28 11:02:59;;;;;;;;;;;16.80;74.90;;;16.46;38.97;98239.81;4998091;28;20007;-58
2022/04/28 11:05:30;;;;;;;;;;;16.80;72.60;;;16.56;42.67;98247.28;4996852;28;19925;-59
2022/04/28 11:07:58;;;;;;;;;;;16.90;77.20;;;16.66;38.88;98254.84;5004688;28;20118;-58
2022/04/28 11:10:24;;;;;;;;;;;17.00;73.30;;;16.71;41.65;98252.81;5014253;28;19995;-58
2022/04/28 11:12:50;;;;;;;;;;;17.10;76.50;;;16.75;39.51;98249.91;5004308;28;20066;-58
2022/04/28 11:15:17;;;;;;;;;;;17.20;76.30;;;16.76;38.89;98243.66;5009446;28;19944;-58
2022/04/28 11:17:44;;;;;;;;;;;17.20;71.80;;;16.81;39.73;98251.41;4996992;28;19927;-59
2022/04/28 11:20:14;;;;;;;;;;;17.20;73.50;;;16.70;37.24;98251.09;5001127;28;19928;-59
2022/04/28 11:22:40;;;;;;;;;;;17.20;69.00;;;16.64;38.14;98243.41;4998590;28;19980;-59
2022/04/28 11:25:24;;;;;;;;;;;17.10;70.30;;;16.65;40.84;98253.09;5007015;28;20435;-59
2022/04/28 11:27:51;;;;;;;;;;;17.00;73.20;;;16.78;37.22;98239.13;5010631;28;19921;-59
2022/04/28 11:30:20;;;;;;;;;;;17.20;70.00;;;16.74;37.40;98250.00;4997005;28;20345;-59
2022/04/28 11:32:53;;;;;;;;;;;17.20;69.20;;;16.84;39.17;98251.31;5009820;28;20284;-59
2022/04/28 11:35:19;;;;;;;;;;;17.20;71.60;;;16.82;37.89;98245.16;5008416;28;20117;-59
2022/04/28 11:37:46;;;;;;;;;;;17.20;69.90;;;16.80;37.91;98252.38;5000467;28;19925;-60
2022/04/28 11:40:12;;;;;;;;;;;17.20;69.40;;;16.78;38.62;98251.59;5009233;28;19925;-60
2022/04/28 11:42:39;;;;;;;;;;;17.20;70.50;;;16.83;38.35;98244.25;5013348;28;19967;-60
2022/04/28 11:45:06;;;;;;;;;;;17.20;70.90;;;16.88;38.69;98238.69;5009568;28;19921;-60
2022/04/28 11:47:41;;;;;;;;;;;17.30;69.10;;;17.01;39.33;98237.13;5002241;28;20369;-60
2022/04/28 11:50:06;;;;;;;;;;;17.40;72.40;;;17.06;37.28;98243.09;5004618;28;20304;-60